createdAt,value
2018-09-03T00:02:23.694Z,102167.89
2018-09-03T00:04:52.219Z,102162.19
2018-09-03T00:07:20.618Z,102163.92
2018-09-03T00:09:49.008Z,102162.17
2018-09-03T00:12:17.426Z,102161.30
2018-09-03T00:14:45.805Z,102162.61
2018-09-03T00:17:14.225Z,102162.19
2018-09-03T00:19:42.639Z,102156.44
2018-09-03T00:22:11.042Z,102150.30
2018-09-03T00:24:39.434Z,102157.34
2018-09-03T00:27:07.837Z,102152.06
2018-09-03T00:29:36.214Z,102152.48
2018-09-03T00:32:09.978Z,102144.59
2018-09-03T00:37:16.719Z,102142.84
2018-09-03T00:39:50.469Z,102137.16
2018-09-03T00:43:26.994Z,102136.69
2018-09-03T00:46:00.835Z,102130.55
2018-09-03T00:48:29.228Z,102133.19
2018-09-03T00:50:57.609Z,102129.69
2018-09-03T00:53:26.007Z,102125.72
2018-09-03T00:55:54.390Z,102131.86
2018-09-03T00:58:22.806Z,102127.48
2018-09-03T01:00:51.185Z,102126.58
2018-09-03T01:03:19.598Z,102124.41
2018-09-03T01:05:48.037Z,102122.19
2018-09-03T01:08:16.446Z,102119.11
2018-09-03T01:10:44.826Z,102122.63
2018-09-03T01:13:13.235Z,102129.23
2018-09-03T01:15:41.626Z,102122.19
2018-09-03T01:18:10.047Z,102123.50
2018-09-03T01:20:38.474Z,102123.06
2018-09-03T01:23:06.871Z,102120.45
2018-09-03T01:25:35.258Z,102123.08
2018-09-03T01:28:03.660Z,102119.13
2018-09-03T01:30:32.042Z,102120.89
2018-09-03T01:33:00.440Z,102112.54
2018-09-03T01:35:28.818Z,102122.19
2018-09-03T01:37:57.214Z,102117.81
2018-09-03T01:40:25.611Z,102122.19
2018-09-03T01:42:54.023Z,102121.75
2018-09-03T01:45:22.412Z,102122.66
2018-09-03T01:47:50.838Z,102115.19
2018-09-03T01:50:19.226Z,102114.31
2018-09-03T01:52:47.628Z,102113.88
2018-09-03T01:55:16.008Z,102112.98
2018-09-03T01:57:44.424Z,102109.03
2018-09-03T02:00:12.807Z,102117.83
2018-09-03T02:02:41.779Z,102116.94
2018-09-03T02:05:10.226Z,102117.81
2018-09-03T02:07:38.636Z,102116.94
2018-09-03T02:10:07.038Z,102115.64
2018-09-03T02:12:35.443Z,102114.77
2018-09-03T02:15:03.830Z,102118.28
2018-09-03T02:17:32.258Z,102115.63
2018-09-03T02:20:00.670Z,102119.58
2018-09-03T02:22:29.070Z,102115.64
2018-09-03T02:24:57.462Z,102114.33
2018-09-03T02:27:25.862Z,102117.83
2018-09-03T02:29:54.245Z,102120.03
2018-09-03T02:32:22.659Z,102110.83
2018-09-03T02:34:51.087Z,102114.76
2018-09-03T02:37:19.642Z,102116.50
2018-09-03T02:39:48.050Z,102120.47
2018-09-03T02:42:16.454Z,102121.77
2018-09-03T02:44:44.867Z,102124.40
2018-09-03T02:47:13.266Z,102126.16
2018-09-03T02:49:41.686Z,102128.35
2018-09-03T02:52:10.071Z,102123.53
2018-09-03T02:54:38.483Z,102122.19
2018-09-03T02:57:08.522Z,102123.06
2018-09-03T02:59:37.714Z,102119.98
2018-09-03T03:02:06.253Z,102118.23
2018-09-03T03:04:34.666Z,102114.30
2018-09-03T03:07:03.060Z,102112.52
2018-09-03T03:09:31.482Z,102102.00
2018-09-03T03:11:59.872Z,102102.44
2018-09-03T03:14:28.278Z,102102.45
2018-09-03T03:16:56.676Z,102104.63
2018-09-03T03:19:25.269Z,102103.73
2018-09-03T03:21:53.655Z,102101.52
2018-09-03T03:24:22.075Z,102108.55
2018-09-03T03:26:50.466Z,102101.03
2018-09-03T03:29:18.887Z,102105.41
2018-09-03T03:31:47.275Z,102098.82
2018-09-03T03:34:15.690Z,102097.08
2018-09-03T03:36:44.087Z,102094.01
2018-09-03T03:39:12.506Z,102091.82
2018-09-03T03:41:40.896Z,102091.80
2018-09-03T03:44:09.310Z,102088.73
2018-09-03T03:46:37.701Z,102090.06
2018-09-03T03:49:06.272Z,102084.34
2018-09-03T03:51:34.671Z,102083.05
2018-09-03T03:54:03.087Z,102080.39
2018-09-03T03:56:31.530Z,102079.51
2018-09-03T03:59:00.012Z,102073.36
2018-09-03T04:01:28.403Z,102077.32
2018-09-03T04:03:56.814Z,102069.40
2018-09-03T04:06:25.207Z,102069.82
2018-09-03T04:08:53.611Z,102065.02
2018-09-03T04:11:22.021Z,102068.52
2018-09-03T04:13:50.427Z,102066.76
2018-09-03T04:16:18.821Z,102062.78
2018-09-03T04:18:47.263Z,102061.48
2018-09-03T04:21:15.654Z,102065.86
2018-09-03T04:23:44.067Z,102063.22
2018-09-03T04:26:13.381Z,102062.34
2018-09-03T04:28:41.828Z,102068.45
2018-09-03T04:31:10.315Z,102067.58
2018-09-03T04:33:38.808Z,102075.03
2018-09-03T04:36:07.224Z,102071.09
2018-09-03T04:38:35.663Z,102067.57
2018-09-03T04:41:04.054Z,102075.45
2018-09-03T04:43:32.513Z,102074.98
2018-09-03T04:46:01.650Z,102077.64
2018-09-03T04:48:30.051Z,102082.00
2018-09-03T04:50:58.476Z,102078.53
2018-09-03T04:53:26.878Z,102081.60
2018-09-03T04:55:55.292Z,102089.06
2018-09-03T04:58:23.680Z,102083.38
2018-09-03T05:00:52.099Z,102079.45
2018-09-03T05:03:20.503Z,102089.08
2018-09-03T05:05:48.985Z,102089.55
2018-09-03T05:08:17.326Z,102089.12
2018-09-03T05:10:45.739Z,102090.44
2018-09-03T05:13:14.131Z,102087.41
2018-09-03T05:15:42.549Z,102092.67
2018-09-03T05:18:10.943Z,102096.16
2018-09-03T05:20:39.431Z,102093.54
2018-09-03T05:23:07.826Z,102093.97
2018-09-03T05:25:36.242Z,102089.59
2018-09-03T05:28:04.638Z,102088.71
2018-09-03T05:30:33.059Z,102084.78
2018-09-03T05:33:01.459Z,102086.53
2018-09-03T05:35:29.877Z,102082.60
2018-09-03T05:37:58.274Z,102084.36
2018-09-03T05:40:26.687Z,102081.30
2018-09-03T05:42:55.085Z,102087.45
2018-09-03T05:45:23.531Z,102090.95
2018-09-03T05:47:51.918Z,102087.45
2018-09-03T05:50:20.392Z,102087.05
2018-09-03T05:52:48.759Z,102088.82
2018-09-03T05:55:17.173Z,102088.39
2018-09-03T05:57:45.566Z,102086.65
2018-09-03T06:00:13.977Z,102088.85
2018-09-03T06:02:42.582Z,102088.86
2018-09-03T06:05:11.003Z,102087.10
2018-09-03T06:07:40.787Z,102087.11
2018-09-03T06:10:09.226Z,102088.88
2018-09-03T06:12:38.167Z,102086.25
2018-09-03T06:15:06.712Z,102093.72
2018-09-03T06:17:35.091Z,102086.25
2018-09-03T06:20:03.527Z,102083.20
2018-09-03T06:22:31.919Z,102086.27
2018-09-03T06:25:00.336Z,102088.02
2018-09-03T06:27:28.734Z,102081.44
2018-09-03T06:29:57.193Z,102089.34
2018-09-03T06:32:25.808Z,102085.81
2018-09-03T06:34:54.226Z,102080.98
2018-09-03T06:37:22.610Z,102078.78
2018-09-03T06:39:51.031Z,102086.23
2018-09-03T06:42:19.417Z,102070.48
2018-09-03T06:44:47.981Z,102070.47
2018-09-03T06:47:16.374Z,102064.74
2018-09-03T06:49:44.774Z,102070.45
2018-09-03T06:52:13.194Z,102068.67
2018-09-03T06:54:41.703Z,102073.03
2018-09-03T06:57:10.119Z,102069.52
2018-09-03T06:59:38.600Z,102072.16
2018-09-03T07:02:07.670Z,102065.11
2018-09-03T07:04:36.268Z,102068.18
2018-09-03T07:07:04.807Z,102071.68
2018-09-03T07:09:33.207Z,102072.07
2018-09-03T07:12:01.663Z,102069.86
2018-09-03T07:14:30.171Z,102071.14
2018-09-03T07:16:58.575Z,102072.86
2018-09-03T07:19:27.259Z,102075.02
2018-09-03T07:21:55.678Z,102071.50
2018-09-03T07:24:24.070Z,102064.47
2018-09-03T07:26:52.502Z,102063.56
2018-09-03T07:29:20.902Z,102060.87
2018-09-03T07:31:49.315Z,102058.61
2018-09-03T07:34:17.709Z,102056.75
2018-09-03T07:36:46.123Z,102054.48
2018-09-03T07:39:14.515Z,102061.84
2018-09-03T07:41:42.937Z,102060.01
2018-09-03T07:44:11.384Z,102059.48
2018-09-03T07:46:39.763Z,102055.86
2018-09-03T07:49:08.202Z,102053.97
2018-09-03T07:51:36.610Z,102060.45
2018-09-03T07:54:05.006Z,102055.49
2018-09-03T07:56:33.427Z,102059.31
2018-09-03T07:59:01.818Z,102053.03
2018-09-03T08:01:30.346Z,102052.94
2018-09-03T08:03:58.782Z,102048.53
2018-09-03T08:06:27.198Z,102053.31
2018-09-03T08:08:55.587Z,102053.27
2018-09-03T08:11:24.006Z,102043.55
2018-09-03T08:13:52.405Z,102040.86
2018-09-03T08:16:20.819Z,102040.35
2018-09-03T08:18:49.243Z,102038.11
2018-09-03T08:21:17.664Z,102035.86
2018-09-03T08:23:46.058Z,102032.30
2018-09-03T08:26:14.463Z,102037.09
2018-09-03T08:28:42.847Z,102033.11
2018-09-03T08:31:11.252Z,102038.34
2018-09-03T08:33:39.640Z,102041.34
2018-09-03T08:36:08.124Z,102039.03
2018-09-03T08:38:36.513Z,102034.53
2018-09-03T08:41:04.927Z,102038.38
2018-09-03T08:43:33.312Z,102031.19
2018-09-03T08:46:01.825Z,102029.82
2018-09-03T08:48:30.215Z,102031.42
2018-09-03T08:50:58.599Z,102018.52
2018-09-03T08:53:27.006Z,102020.15
2018-09-03T08:55:55.411Z,102019.09
2018-09-03T08:58:23.818Z,102018.50
2018-09-03T09:00:52.224Z,102006.05
2018-09-03T09:03:26.075Z,102008.14
2018-09-03T09:05:54.527Z,102004.02
2018-09-03T09:08:22.898Z,101998.56
2018-09-03T09:10:51.286Z,101998.91
2018-09-03T09:13:20.410Z,101996.11
2018-09-03T09:15:49.313Z,102001.31
2018-09-03T09:18:17.991Z,101993.67
2018-09-03T09:20:46.651Z,101990.41
2018-09-03T09:23:15.463Z,101992.86
2018-09-03T09:25:43.847Z,101997.16
2018-09-03T09:28:12.344Z,101995.27
2018-09-03T09:30:40.747Z,101992.50
2018-09-03T09:33:09.395Z,101995.44
2018-09-03T09:35:37.817Z,101986.92
2018-09-03T09:38:06.402Z,101987.64
2018-09-03T09:40:34.846Z,101978.64
2018-09-03T09:43:03.372Z,101973.61
2018-09-03T09:45:31.747Z,101968.52
2018-09-03T09:48:00.154Z,101959.12
2018-09-03T09:50:28.766Z,101965.56
2018-09-03T09:52:57.201Z,101970.76
2018-09-03T09:55:25.591Z,101959.13
2018-09-03T09:57:54.007Z,101955.95
2018-09-03T10:00:27.710Z,101957.58
2018-09-03T10:02:56.126Z,101957.45
2018-09-03T10:05:24.531Z,101954.31
2018-09-03T10:07:52.939Z,101956.79
2018-09-03T10:10:21.328Z,101950.04
2018-09-03T10:12:49.760Z,101954.70
2018-09-03T10:15:18.163Z,101948.37
2018-09-03T10:17:46.627Z,101957.98
2018-09-03T10:20:15.039Z,101955.55
2018-09-03T10:22:43.551Z,101945.66
2018-09-03T10:25:11.934Z,101939.76
2018-09-03T10:27:40.343Z,101949.73
2018-09-03T10:30:08.767Z,101949.57
2018-09-03T10:32:37.195Z,101948.98
2018-09-03T10:35:05.763Z,101943.06
2018-09-03T10:37:34.179Z,101938.95
2018-09-03T10:40:02.621Z,101940.58
2018-09-03T10:42:31.043Z,101943.41
2018-09-03T10:44:59.443Z,101940.11
2018-09-03T10:47:27.921Z,101936.38
2018-09-03T10:49:56.263Z,101928.69
2018-09-03T10:52:24.674Z,101921.83
2018-09-03T10:54:53.087Z,101923.42
2018-09-03T10:57:21.487Z,101919.28
2018-09-03T10:59:49.917Z,101918.28
2018-09-03T11:02:18.315Z,101918.14
2018-09-03T11:04:46.735Z,101913.10
2018-09-03T11:07:15.132Z,101904.15
2018-09-03T11:09:43.558Z,101906.27
2018-09-03T11:12:12.518Z,101903.50
2018-09-03T11:14:40.934Z,101903.41
2018-09-03T11:17:09.331Z,101894.92
2018-09-03T11:19:42.123Z,101894.31
2018-09-03T11:22:10.514Z,101898.50
2018-09-03T11:24:38.927Z,101896.08
2018-09-03T11:27:07.334Z,101889.23
2018-09-03T11:29:35.914Z,101876.63
2018-09-03T11:32:04.584Z,101887.98
2018-09-03T11:34:33.002Z,101877.61
2018-09-03T11:37:01.398Z,101886.77
2018-09-03T11:39:29.828Z,101892.45
2018-09-03T11:41:58.230Z,101869.30
2018-09-03T11:44:26.642Z,101876.30
2018-09-03T11:46:55.036Z,101862.95
2018-09-03T11:49:23.455Z,101867.33
2018-09-03T11:51:51.847Z,101872.97
2018-09-03T11:54:20.267Z,101850.67
2018-09-03T11:56:48.655Z,101856.81
2018-09-03T11:59:17.067Z,101854.06
2018-09-03T12:01:45.463Z,101853.59
2018-09-03T12:04:13.893Z,101845.60
2018-09-03T12:06:42.315Z,101853.98
2018-09-03T12:09:11.524Z,101844.62
2018-09-03T12:11:39.927Z,101837.56
2018-09-03T12:14:11.051Z,101849.48
2018-09-03T12:16:39.463Z,101840.16
2018-09-03T12:19:07.903Z,101836.11
2018-09-03T12:21:36.295Z,101836.16
2018-09-03T12:24:04.731Z,101835.64
2018-09-03T12:26:33.114Z,101834.30
2018-09-03T12:29:01.515Z,101824.94
2018-09-03T12:31:29.896Z,101834.14
2018-09-03T12:33:58.512Z,101829.67
2018-09-03T12:36:26.919Z,101826.06
2018-09-03T12:38:55.333Z,101834.53
2018-09-03T12:41:23.789Z,101830.95
2018-09-03T12:43:52.202Z,101827.74
2018-09-03T12:46:20.630Z,101831.70
2018-09-03T12:48:49.055Z,101832.39
2018-09-03T12:51:17.477Z,101832.34
2018-09-03T12:53:45.895Z,101827.36
2018-09-03T12:56:14.306Z,101821.90
2018-09-03T12:58:42.747Z,101821.84
2018-09-03T13:01:11.146Z,101822.63
2018-09-03T13:03:39.530Z,101812.86
2018-09-03T13:06:07.970Z,101809.64
2018-09-03T13:08:36.374Z,101802.94
2018-09-03T13:11:04.797Z,101805.21
2018-09-03T13:13:33.203Z,101811.45
2018-09-03T13:16:01.627Z,101807.70
2018-09-03T13:18:30.060Z,101793.61
2018-09-03T13:20:58.502Z,101799.89
2018-09-03T13:23:26.891Z,101806.08
2018-09-03T13:25:55.307Z,101790.09
2018-09-03T13:28:23.698Z,101791.72
2018-09-03T13:30:52.179Z,101801.86
2018-09-03T13:33:20.535Z,101798.84
2018-09-03T13:35:48.938Z,101790.86
2018-09-03T13:38:17.318Z,101793.56
2018-09-03T13:40:45.742Z,101786.77
2018-09-03T13:43:14.315Z,101789.39
2018-09-03T13:45:42.926Z,101785.78
2018-09-03T13:48:11.332Z,101785.31
2018-09-03T13:50:39.747Z,101785.73
2018-09-03T13:53:08.221Z,101783.98
2018-09-03T13:55:36.631Z,101791.63
2018-09-03T13:58:05.023Z,101782.38
2018-09-03T14:00:33.435Z,101786.38
2018-09-03T14:03:01.832Z,101783.64
2018-09-03T14:05:30.243Z,101782.73
2018-09-03T14:07:58.631Z,101779.64
2018-09-03T14:10:27.042Z,101789.96
2018-09-03T14:12:55.437Z,101782.05
2018-09-03T14:15:23.983Z,101776.94
2018-09-03T14:17:52.425Z,101774.10
2018-09-03T14:20:20.854Z,101778.74
2018-09-03T14:22:49.244Z,101777.70
2018-09-03T14:25:17.654Z,101774.91
2018-09-03T14:27:46.043Z,101776.89
2018-09-03T14:30:14.454Z,101779.37
2018-09-03T14:32:42.843Z,101779.70
2018-09-03T14:35:11.292Z,101785.39
2018-09-03T14:37:39.683Z,101783.98
2018-09-03T14:40:08.850Z,101778.91
2018-09-03T14:42:37.262Z,101774.41
2018-09-03T14:45:06.051Z,101778.64
2018-09-03T14:47:34.454Z,101772.69
2018-09-03T14:50:03.040Z,101771.23
2018-09-03T14:52:31.474Z,101771.89
2018-09-03T14:54:59.907Z,101772.55
2018-09-03T14:57:28.335Z,101772.38
2018-09-03T14:59:56.817Z,101773.03
2018-09-03T15:02:25.306Z,101777.20
2018-09-03T15:04:53.655Z,101770.78
2018-09-03T15:07:22.077Z,101774.45
2018-09-03T15:09:50.482Z,101778.97
2018-09-03T15:12:18.902Z,101781.38
2018-09-03T15:14:47.300Z,101777.06
2018-09-03T15:17:15.721Z,101778.68
2018-09-03T15:19:44.139Z,101779.03
2018-09-03T15:22:12.560Z,101790.83
2018-09-03T15:24:41.320Z,101782.72
2018-09-03T15:27:09.728Z,101786.61
2018-09-03T15:29:38.119Z,101783.81
2018-09-03T15:32:06.548Z,101787.25
2018-09-03T15:34:34.931Z,101777.81
2018-09-03T15:37:03.330Z,101780.25
2018-09-03T15:39:31.718Z,101776.48
2018-09-03T15:42:00.148Z,101785.96
2018-09-03T15:44:28.538Z,101782.59
2018-09-03T15:46:56.954Z,101788.51
2018-09-03T15:49:25.382Z,101785.11
2018-09-03T15:51:53.804Z,101787.91
2018-09-03T15:54:22.190Z,101788.97
2018-09-03T15:56:50.609Z,101785.11
2018-09-03T15:59:19.015Z,101794.56
2018-09-03T16:01:47.460Z,101788.98
2018-09-03T16:04:15.846Z,101783.05
2018-09-03T16:06:44.285Z,101783.26
2018-09-03T16:09:12.828Z,101779.84
2018-09-03T16:11:41.252Z,101779.55
2018-09-03T16:14:10.062Z,101781.47
2018-09-03T16:16:38.519Z,101786.92
2018-09-03T16:19:06.972Z,101776.88
2018-09-03T16:21:35.386Z,101773.08
2018-09-03T16:24:03.778Z,101772.78
2018-09-03T16:26:32.267Z,101778.23
2018-09-03T16:29:00.665Z,101773.03
2018-09-03T16:31:29.188Z,101771.80
2018-09-03T16:33:57.583Z,101774.09
2018-09-03T16:36:26.036Z,101771.59
2018-09-03T16:38:54.518Z,101775.27
2018-09-03T16:41:22.883Z,101780.25
2018-09-03T16:43:51.271Z,101770.64
2018-09-03T16:46:19.745Z,101762.36
2018-09-03T16:48:48.258Z,101762.45
2018-09-03T16:51:16.737Z,101762.09
2018-09-03T16:53:45.379Z,101763.05
2018-09-03T16:56:13.880Z,101766.27
2018-09-03T16:58:43.223Z,101768.13
2018-09-03T17:01:11.727Z,101762.56
2018-09-03T17:03:40.460Z,101763.58
2018-09-03T17:06:08.844Z,101762.34
2018-09-03T17:08:37.319Z,101766.84
2018-09-03T17:11:05.707Z,101770.91
2018-09-03T17:13:34.277Z,101770.17
2018-09-03T17:16:03.034Z,101770.72
2018-09-03T17:18:31.483Z,101772.17
2018-09-03T17:20:59.990Z,101767.88
2018-09-03T17:23:28.502Z,101766.21
2018-09-03T17:25:57.175Z,101767.19
2018-09-03T17:28:25.587Z,101766.41
2018-09-03T17:30:53.983Z,101765.66
2018-09-03T17:33:22.396Z,101760.91
2018-09-03T17:35:50.787Z,101759.70
2018-09-03T17:38:19.234Z,101763.74
2018-09-03T17:40:47.619Z,101765.13
2018-09-03T17:43:16.026Z,101759.09
2018-09-03T17:45:44.518Z,101760.03
2018-09-03T17:48:12.922Z,101772.87
2018-09-03T17:50:42.191Z,101778.67
2018-09-03T17:53:10.606Z,101773.95
2018-09-03T17:55:39.035Z,101774.39
2018-09-03T17:58:07.447Z,101768.75
2018-09-03T18:00:35.844Z,101777.59
2018-09-03T18:03:04.254Z,101774.14
2018-09-03T18:05:32.655Z,101761.91
2018-09-03T18:08:01.063Z,101765.50
2018-09-03T18:10:29.461Z,101766.02
2018-09-03T18:12:57.875Z,101763.88
2018-09-03T18:15:26.298Z,101773.62
2018-09-03T18:17:54.727Z,101764.47
2018-09-03T18:20:23.135Z,101765.84
2018-09-03T18:22:51.560Z,101774.25
2018-09-03T18:25:19.947Z,101773.42
2018-09-03T18:27:48.383Z,101769.06
2018-09-03T18:30:17.003Z,101771.33
2018-09-03T18:32:45.416Z,101769.60
2018-09-03T18:35:13.807Z,101769.20
2018-09-03T18:37:42.284Z,101770.59
2018-09-03T18:40:10.675Z,101772.39
2018-09-03T18:42:39.092Z,101771.98
2018-09-03T18:45:08.618Z,101775.11
2018-09-03T18:47:37.024Z,101768.55
2018-09-03T18:50:05.887Z,101766.41
2018-09-03T18:52:34.364Z,101770.39
2018-09-03T18:55:02.751Z,101768.24
2018-09-03T18:57:31.164Z,101773.09
2018-09-03T18:59:59.590Z,101766.13
2018-09-03T19:02:28.070Z,101771.84
2018-09-03T19:04:56.504Z,101767.50
2018-09-03T19:07:24.943Z,101767.05
2018-09-03T19:09:53.459Z,101767.53
2018-09-03T19:12:21.788Z,101770.20
2018-09-03T19:14:50.226Z,101770.64
2018-09-03T19:17:18.618Z,101769.80
2018-09-03T19:19:47.076Z,101766.75
2018-09-03T19:22:15.525Z,101769.86
2018-09-03T19:24:44.096Z,101770.30
2018-09-03T19:27:12.493Z,101773.39
2018-09-03T19:29:40.906Z,101768.56
2018-09-03T19:32:09.299Z,101765.95
2018-09-03T19:34:37.712Z,101765.11
2018-09-03T19:37:06.137Z,101765.56
2018-09-03T19:39:34.546Z,101761.19
2018-09-03T19:42:02.943Z,101755.95
2018-09-03T19:44:31.387Z,101761.66
2018-09-03T19:46:59.799Z,101757.73
2018-09-03T19:49:28.212Z,101760.81
2018-09-03T19:51:56.654Z,101754.70
2018-09-03T19:54:25.059Z,101763.05
2018-09-03T19:56:53.451Z,101763.03
2018-09-03T19:59:21.863Z,101755.61
2018-09-03T20:01:50.294Z,101757.38
2018-09-03T20:04:18.711Z,101749.05
2018-09-03T20:06:47.116Z,101750.39
2018-09-03T20:09:15.530Z,101750.84
2018-09-03T20:11:43.969Z,101749.55
2018-09-03T20:14:12.383Z,101756.11
2018-09-03T20:16:40.771Z,101750.89
2018-09-03T20:19:09.203Z,101758.33
2018-09-03T20:21:37.664Z,101751.77
2018-09-03T20:24:06.082Z,101751.80
2018-09-03T20:26:34.519Z,101748.30
2018-09-03T20:29:02.935Z,101745.69
2018-09-03T20:31:31.315Z,101744.81
2018-09-03T20:33:59.734Z,101751.83
2018-09-03T20:36:28.195Z,101745.24
2018-09-03T20:38:56.558Z,101745.72
2018-09-03T20:41:24.942Z,101753.15
2018-09-03T20:43:53.367Z,101749.64
2018-09-03T20:46:21.822Z,101750.53
2018-09-03T20:48:50.215Z,101750.12
2018-09-03T20:51:18.627Z,101747.92
2018-09-03T20:53:47.038Z,101754.50
2018-09-03T20:56:15.431Z,101748.81
2018-09-03T20:58:43.834Z,101756.24
2018-09-03T21:01:12.259Z,101751.00
2018-09-03T21:03:40.655Z,101748.81
2018-09-03T21:06:09.099Z,101751.43
2018-09-03T21:08:37.470Z,101743.97
2018-09-03T21:11:06.046Z,101744.00
2018-09-03T21:13:34.598Z,101744.88
2018-09-03T21:16:03.198Z,101745.76
2018-09-03T21:18:31.636Z,101746.20
2018-09-03T21:21:00.054Z,101747.10
2018-09-03T21:23:28.431Z,101746.22
2018-09-03T21:25:56.834Z,101750.17
2018-09-03T21:28:25.266Z,101746.23
2018-09-03T21:30:53.643Z,101751.47
2018-09-03T21:33:22.016Z,101751.93
2018-09-03T21:35:50.542Z,101747.55
2018-09-03T21:38:18.926Z,101751.93
2018-09-03T21:40:47.346Z,101741.01
2018-09-03T21:43:15.733Z,101736.18
2018-09-03T21:45:44.138Z,101737.08
2018-09-03T21:48:12.522Z,101738.83
2018-09-03T21:50:40.951Z,101737.52
2018-09-03T21:53:09.331Z,101737.97
2018-09-03T21:55:37.736Z,101730.08
2018-09-03T21:58:06.115Z,101734.02
2018-09-03T22:00:34.598Z,101728.77
2018-09-03T22:03:02.978Z,101728.31
2018-09-03T22:05:31.391Z,101726.13
2018-09-03T22:07:59.793Z,101722.16
2018-09-03T22:10:28.224Z,101721.28
2018-09-03T22:12:56.602Z,101717.34
2018-09-03T22:15:25.010Z,101720.41
2018-09-03T22:17:53.390Z,101713.39
2018-09-03T22:20:21.810Z,101711.20
2018-09-03T22:22:50.204Z,101710.77
2018-09-03T22:25:18.606Z,101709.02
2018-09-03T22:27:46.978Z,101709.00
2018-09-03T22:30:15.386Z,101713.80
2018-09-03T22:32:43.841Z,101707.25
2018-09-03T22:35:12.235Z,101708.98
2018-09-03T22:37:40.613Z,101704.59
2018-09-03T22:40:09.011Z,101711.59
2018-09-03T22:42:37.391Z,101714.18
2018-09-03T22:45:05.790Z,101712.42
2018-09-03T22:47:34.183Z,101716.38
2018-09-03T22:50:02.586Z,101714.16
2018-09-03T22:52:30.965Z,101717.20
2018-09-03T22:54:59.387Z,101719.84
2018-09-03T22:57:27.765Z,101718.95
2018-09-03T22:59:56.125Z,101712.39
2018-09-03T23:02:24.520Z,101713.70
2018-09-03T23:04:53.091Z,101709.77
2018-09-03T23:07:21.491Z,101712.80
2018-09-03T23:09:49.858Z,101711.95
2018-09-03T23:12:18.254Z,101717.61
2018-09-03T23:14:46.626Z,101718.03
2018-09-03T23:17:15.035Z,101716.70
2018-09-03T23:19:43.430Z,101714.09
2018-09-03T23:22:11.823Z,101711.90
2018-09-03T23:24:40.206Z,101717.12
2018-09-03T23:27:08.608Z,101714.49
2018-09-03T23:29:36.986Z,101709.23
2018-09-03T23:32:05.382Z,101716.65
2018-09-03T23:34:33.759Z,101711.42
2018-09-03T23:37:02.158Z,101710.97
2018-09-03T23:39:30.554Z,101717.47
2018-09-03T23:41:58.951Z,101722.26
2018-09-03T23:44:27.358Z,101718.75
2018-09-03T23:46:55.755Z,101711.75
2018-09-03T23:49:24.131Z,101708.24
2018-09-03T23:51:52.523Z,101714.80
2018-09-03T23:54:20.906Z,101711.72
2018-09-03T23:56:49.307Z,101714.80
2018-09-03T23:59:17.683Z,101710.87
